Laconia, NH (03247)

2:43 PM EDT on August 29, 2016 (GMT -0400)
HADS | | Change Station

Elev 469 ft 43.57 °N, 71.36 °W | Updated 58 minutes ago

Overcast
Overcast
77.0 °F
Feels Like 77.0 °F
N
0.0
Wind Variable Wind from North
Gusts 0.0 mph

Today
High -- | Low -- °F
--% Chance of Precip.
Yesterday
High -- | Low -- °F
Precip. -- in
Pressure 30.11 in
Visibility 10.0 miles
Clouds Overcast 5500 ft
Dew Point Not available.
Humidity Not available.
Rainfall in
Snow Depth Not available.
6:06 AM 7:25 PM
Waning Crescent, 7% visible
METAR KLCI 291656Z AUTO 34013G18KT 10SM OVC055 26/12 A3008 RMK AO2 PK WND 27028/1643 SLP194 T02560122
Pressure 30.11 in
Visibility 10.0 miles
Clouds Overcast 5500 ft
Dew Point Not available.
Humidity Not available.
Rainfall in
Snow Depth Not available.
6:06 AM 7:25 PM
Waning Crescent, 7% visible
METAR KLCI 291656Z AUTO 34013G18KT 10SM OVC055 26/12 A3008 RMK AO2 PK WND 27028/1643 SLP194 T02560122

10-Day Weather Forecast

Almanac

Astronomy

Aug. 29, 2016 Rise Set
Actual Time
Civil Twilight
Nautical Twilight
Astronomical Twilight
Moon
Length of Visible Light
Length of Day
Tomorrow will be .
, % of the Moon is Illuminated

Today's Extremes

State Highs State Lows

Community

WunderPhotos

Upload Photos

1,935,680 photos uploaded!

WunderBlog® & News

Nearby

Air Quality

  Air Quality AQ Index Pollutant
Not available.

Snow Depth

Station Depth Elevation

Earthquake Activity

City Distance Mag. Time & Date
Minimum magnitude displayed is 2.5.

Coastal Water Temperatures

Place Temperature

Stations

Nearby Weather Stations

Station Location Temp. Windchill Dew Point Humidity Wind Precip. Elev Updated Type
                   

Watches & Warnings

There are currently no watches in effect.